Portada
METAR-TAF:

METAR-TAF

Aeroports :

Shantou, Xina

latitud: 23-24N, longitud: 116-41E, altitud: 3 m

Observació

L'informe es va fer fa 35 minuts, a les 01:00 UTC
Vent 6 kt del Est, variant entre Est/Nord-Est i Sud-Est
Temperatura 20°C
Humitat 88%
Pressió 1016 hPa
Visibilitat: 8000 m
Escasses núvols a una alçada de 1700 ft
Cel ennuvolat a una alçada de 2300 ft

METAR: ZGOW 200100Z 08003MPS 060V140 8000 FEW017 BKN023 20/18 Q1016 NOSIG

Hora: 09:35 (01:35 UTC)

Pronòstic

L'informe es va fer fa 6 hores i 30 minuts, a les 19:05 UTC
Pronòstic vàlid del 20 a les 00 UTC al 20 a les 24 UTC
Vent 6 kt del Est
Visibilitat: 6000 m
Escasses núvols a una alçada de 2000 ft
Núvols disperses a una alçada de 5000 ft
Temporalment
l' 20 a les 00 UTC al 20 a les 04 UTC
Visibilitat: 2100 m
boirina

TAF: ZGOW 191905Z 2000/2024 10003MPS 6000 FEW020 SCT050 TX28/2006Z TN18/2022Z TEMPO 2000/2004 2100 BR

Observacions i pronòstics meteorològics de més de 4000 aeroports (METAR i TAF).

Les estacions disponibles són els punts grocs i vermells al mapa.

Posi el ratolí al punt desitjat per veure el nom de l'estació.

Feu clic per veure les observacions i els pronòstics meteorològics.

Per canviar el mapa: feu clic els botons verds amb una creu de color negre per apropar; al botó verd amb un guió per allunyar la imatge; o en les fletxes verdes per a mapes adjacents.


METAR-TAF: